Time;durP1;ratioP1;P1;durP2;ratioP2;P2;SDS_P1;SDS_P2;PMS_P1;PMS_P2;Temp;Humidity;BMP_temperature;BMP_pressure;BME280_temperature;BME280_humidity;BME280_pressure;Samples;Min_cycle;Max_cycle;Signal;HPM_P1;HPM_P2
2024/02/13 00:00:30;;;;;;;5.75;3.33;;;7.90;99.90;;;7.14;100.00;101278.56;4174272;28;20455;-72
2024/02/13 00:02:31;;;;;;;4.22;2.40;;;7.80;99.90;;;7.13;100.00;101273.44;4187401;28;20036;-73
2024/02/13 00:04:33;;;;;;;3.97;2.55;;;7.80;99.90;;;7.13;100.00;101278.69;4187280;28;20055;-73
2024/02/13 00:06:34;;;;;;;5.75;2.65;;;7.80;99.90;;;7.11;100.00;101280.59;4186949;28;20060;-72
2024/02/13 00:08:36;;;;;;;4.35;2.67;;;7.80;99.90;;;7.10;100.00;101284.19;4187297;28;20029;-72
2024/02/13 00:10:37;;;;;;;4.18;2.38;;;7.80;99.90;;;7.10;100.00;101277.16;4185767;28;20044;-72
2024/02/13 00:12:39;;;;;;;7.45;4.05;;;7.80;99.90;;;7.06;100.00;101269.63;4187196;28;20029;-72
2024/02/13 00:14:40;;;;;;;5.45;3.42;;;7.80;99.90;;;7.08;100.00;101280.81;4186590;28;20037;-72
2024/02/13 00:16:43;;;;;;;10.60;5.90;;;7.80;99.90;;;7.05;100.00;101279.28;4170499;28;20021;-72
2024/02/13 00:18:44;;;;;;;13.93;5.78;;;7.70;99.90;;;7.06;100.00;101272.25;4182996;28;20036;-72
2024/02/13 00:20:45;;;;;;;10.05;5.18;;;7.80;99.90;;;7.07;100.00;101285.28;4185836;28;20017;-72
2024/02/13 00:22:49;;;;;;;11.40;6.03;;;7.70;99.90;;;7.06;100.00;101277.50;4186929;28;20451;-72
2024/02/13 00:24:50;;;;;;;15.32;7.68;;;7.70;99.90;;;7.06;100.00;101275.72;4187387;28;20032;-73
2024/02/13 00:26:52;;;;;;;18.88;9.40;;;7.70;99.90;;;7.07;100.00;101268.69;4187376;28;20405;-72
2024/02/13 00:28:53;;;;;;;19.67;10.35;;;7.80;99.90;;;7.08;100.00;101273.78;4187605;28;20039;-72
2024/02/13 00:30:54;;;;;;;21.63;9.70;;;7.80;99.90;;;7.08;100.00;101267.72;4186247;28;20033;-73
2024/02/13 00:32:57;;;;;;;11.93;6.07;;;7.70;99.90;;;7.08;100.00;101271.19;4187670;28;20029;-72
2024/02/13 00:35:03;;;;;;;20.83;9.90;;;7.70;99.90;;;7.02;100.00;101262.94;4187384;28;20033;-73
2024/02/13 00:37:04;;;;;;;16.98;8.30;;;7.70;99.90;;;7.04;100.00;101264.53;4186314;28;20098;-73
2024/02/13 00:39:04;;;;;;;15.07;6.63;;;7.70;99.90;;;7.05;100.00;101260.09;4185923;28;20057;-73
2024/02/13 00:41:05;;;;;;;10.38;5.60;;;7.70;99.90;;;7.05;100.00;101262.72;4185358;28;20551;-73
2024/02/13 00:43:06;;;;;;;10.98;4.32;;;7.70;99.90;;;7.07;100.00;101263.44;4186074;28;20574;-73
2024/02/13 00:45:10;;;;;;;12.00;6.03;;;7.70;99.90;;;7.09;100.00;101256.28;4187315;28;20013;-73
2024/02/13 00:47:12;;;;;;;;;;;7.80;99.90;;;7.07;100.00;101259.03;4169070;28;20035;-73
2024/02/13 00:49:13;;;;;;;25.92;11.55;;;7.80;99.90;;;7.10;100.00;101257.94;4173509;28;20058;-73
2024/02/13 00:51:15;;;;;;;24.65;11.00;;;7.80;99.90;;;7.10;100.00;101253.53;4187194;28;20037;-73
2024/02/13 00:53:16;;;;;;;19.67;10.40;;;7.80;99.90;;;7.10;100.00;101257.94;4186987;28;20048;-73
2024/02/13 00:55:17;;;;;;;15.20;7.75;;;7.80;99.90;;;7.14;100.00;101267.22;4185795;28;20062;-73
2024/02/13 00:57:18;;;;;;;12.35;6.10;;;7.80;99.90;;;7.13;100.00;101262.97;4169113;28;20021;-73
2024/02/13 00:59:20;;;;;;;17.63;8.65;;;7.80;99.90;;;7.15;100.00;101264.50;4169174;28;20035;-73
2024/02/13 01:01:21;;;;;;;20.90;11.15;;;7.80;99.90;;;7.17;100.00;101267.81;4169743;28;20086;-73
2024/02/13 01:03:22;;;;;;;13.82;5.93;;;7.80;99.90;;;7.16;100.00;101265.34;4169179;28;20037;-73
2024/02/13 01:05:23;;;;;;;9.30;4.63;;;7.80;99.90;;;7.19;100.00;101267.72;4169318;28;20036;-73
2024/02/13 01:07:24;;;;;;;10.23;5.15;;;7.80;99.90;;;7.20;100.00;101261.50;4172374;28;20408;-73
2024/02/13 01:09:25;;;;;;;11.13;5.20;;;7.80;99.90;;;7.21;100.00;101260.56;4186825;28;20025;-73
2024/02/13 01:11:26;;;;;;;10.90;5.88;;;7.90;99.90;;;7.22;100.00;101263.06;4184655;28;20112;-73
2024/02/13 01:13:27;;;;;;;9.95;4.47;;;7.80;99.90;;;7.22;100.00;101262.22;4187046;28;20029;-73
2024/02/13 01:15:28;;;;;;;7.45;3.85;;;7.90;99.90;;;7.22;100.00;101267.47;4186828;28;20508;-73
2024/02/13 01:17:29;;;;;;;7.63;4.10;;;7.90;99.90;;;7.21;100.00;101271.06;4186653;28;20110;-73
2024/02/13 01:19:31;;;;;;;6.80;4.00;;;7.90;99.90;;;7.18;100.00;101266.88;4186631;28;20025;-73
2024/02/13 01:21:32;;;;;;;7.60;4.20;;;7.90;99.90;;;7.18;100.00;101266.88;4185726;28;20104;-73
2024/02/13 01:23:33;;;;;;;6.38;4.07;;;7.80;99.90;;;7.18;100.00;101261.63;4168953;28;20116;-73
2024/02/13 01:25:35;;;;;;;6.75;3.63;;;7.80;99.90;;;7.15;100.00;101255.78;4175404;28;20040;-73
2024/02/13 01:27:38;;;;;;;13.32;6.22;;;7.80;99.90;;;7.19;100.00;101259.84;4173198;28;20039;-73
2024/02/13 01:29:39;;;;;;;9.80;5.45;;;7.90;99.90;;;7.15;100.00;101256.63;4186630;28;20028;-73
2024/02/13 01:31:40;;;;;;;12.35;5.88;;;7.80;99.90;;;7.10;100.00;101260.56;4186595;28;20033;-73
2024/02/13 01:33:41;;;;;;;8.95;5.07;;;7.80;99.90;;;7.01;100.00;101250.81;4186457;28;20025;-73
2024/02/13 01:35:43;;;;;;;15.52;8.38;;;7.70;99.90;;;6.93;100.00;101251.38;4185398;28;20396;-73
2024/02/13 01:37:46;;;;;;;20.48;10.60;;;7.60;99.90;;;6.85;100.00;101252.94;4185484;28;20495;-73
2024/02/13 01:39:47;;;;;;;19.00;10.25;;;7.60;99.90;;;6.73;100.00;101249.50;4185358;28;20040;-73
2024/02/13 01:41:47;;;;;;;21.85;11.02;;;7.50;99.90;;;6.67;100.00;101255.22;4184945;28;20029;-73
2024/02/13 01:43:49;;;;;;;17.70;10.20;;;7.40;99.90;;;6.57;100.00;101254.28;4186315;28;20075;-73
2024/02/13 01:45:52;;;;;;;14.35;8.57;;;7.30;99.90;;;6.52;100.00;101257.22;4185102;28;20014;-73
2024/02/13 01:47:55;;;;;;;13.15;6.55;;;7.30;99.90;;;6.38;100.00;101252.22;4186197;28;20033;-73
2024/02/13 01:49:56;;;;;;;12.98;7.60;;;7.20;99.90;;;6.29;100.00;101255.53;4185099;28;20067;-74
2024/02/13 01:51:59;;;;;;;14.18;7.60;;;7.10;99.90;;;6.22;100.00;101246.47;4168286;28;20029;-73
2024/02/13 01:54:02;;;;;;;12.65;7.68;;;7.00;99.90;;;6.18;100.00;101254.69;4185156;28;20021;-73
2024/02/13 01:56:05;;;;;;;10.60;6.97;;;6.90;99.90;;;6.07;100.00;101251.06;4184890;28;20037;-73
2024/02/13 01:58:06;;;;;;;14.70;8.57;;;6.80;99.90;;;6.09;100.00;101251.78;4184889;28;20032;-73
2024/02/13 02:00:13;;;;;;;22.35;11.23;;;6.80;99.90;;;6.06;100.00;101248.56;4184827;28;20084;-73
2024/02/13 02:02:14;;;;;;;23.35;12.10;;;6.70;99.90;;;6.04;100.00;101260.94;4168857;28;20112;-73
2024/02/13 02:04:15;;;;;;;18.77;10.45;;;6.70;99.90;;;6.00;100.00;101260.31;4184887;28;20094;-73
2024/02/13 02:06:16;;;;;;;33.78;16.05;;;6.70;99.90;;;5.99;100.00;101260.44;4186177;28;20074;-73
2024/02/13 02:08:18;;;;;;;23.30;11.20;;;6.70;99.90;;;5.99;100.00;101252.59;4184577;28;20017;-73
2024/02/13 02:10:19;;;;;;;21.00;10.20;;;6.70;99.90;;;6.05;100.00;101257.38;4168382;28;20018;-73
2024/02/13 02:12:20;;;;;;;18.77;8.93;;;6.70;99.90;;;6.10;100.00;101253.47;4185706;28;20469;-73
2024/02/13 02:14:22;;;;;;;16.90;8.02;;;6.70;99.90;;;6.16;100.00;101254.78;4185961;28;20029;-73
2024/02/13 02:16:23;;;;;;;24.73;8.07;;;6.80;99.90;;;6.24;100.00;101252.44;4184706;28;20025;-73
2024/02/13 02:18:24;;;;;;;11.25;6.35;;;6.90;99.90;;;6.34;100.00;101255.16;4184368;28;20614;-73
2024/02/13 02:20:25;;;;;;;13.55;5.90;;;6.90;99.90;;;6.45;100.00;101253.41;4184598;28;20029;-73
2024/02/13 02:22:25;;;;;;;10.32;6.45;;;7.10;99.90;;;6.52;100.00;101240.66;4184065;28;20071;-73
2024/02/13 02:24:26;;;;;;;6.68;4.38;;;7.10;99.90;;;6.58;100.00;101242.81;4184410;28;20040;-73
2024/02/13 02:26:27;;;;;;;15.93;5.95;;;7.20;99.90;;;6.65;100.00;101247.47;4185458;28;20029;-73
2024/02/13 02:28:28;;;;;;;9.77;4.75;;;7.30;99.90;;;6.71;100.00;101232.22;4185573;28;20025;-73
2024/02/13 02:30:29;;;;;;;8.32;4.88;;;7.30;99.90;;;6.74;100.00;101230.19;4185605;28;20021;-73
2024/02/13 02:32:30;;;;;;;8.95;5.55;;;7.40;99.90;;;6.79;100.00;101230.66;4185645;28;20025;-73
2024/02/13 02:34:31;;;;;;;5.78;4.35;;;7.40;99.90;;;6.85;100.00;101232.81;4165948;28;20433;-73
2024/02/13 02:36:32;;;;;;;8.43;4.22;;;7.50;99.90;;;6.91;100.00;101234.13;4174453;28;20056;-73
2024/02/13 02:38:35;;;;;;;8.93;4.47;;;7.50;99.90;;;6.92;100.00;101228.75;4185553;28;20103;-73
2024/02/13 02:40:37;;;;;;;8.68;3.92;;;7.60;99.90;;;6.96;100.00;101232.78;4167988;28;20041;-73
2024/02/13 02:42:38;;;;;;;8.82;4.10;;;7.60;99.90;;;6.96;100.00;101230.16;4185507;28;20082;-73
2024/02/13 02:44:40;;;;;;;6.78;3.42;;;7.60;99.90;;;6.93;100.00;101226.97;4184405;28;20021;-73
2024/02/13 02:46:41;;;;;;;7.55;3.55;;;7.60;99.90;;;6.91;100.00;101223.63;4184252;28;20076;-73
2024/02/13 02:48:42;;;;;;;6.28;3.35;;;7.60;99.90;;;6.91;100.00;101219.22;4185109;28;20127;-73
2024/02/13 02:50:42;;;;;;;8.25;4.22;;;7.60;99.90;;;6.93;100.00;101221.75;4172197;28;20503;-73
2024/02/13 02:52:44;;;;;;;5.18;3.30;;;7.60;99.90;;;6.95;100.00;101222.44;4184169;28;20400;-73
2024/02/13 02:54:45;;;;;;;7.38;3.40;;;7.60;99.90;;;6.99;100.00;101223.88;4185446;28;20036;-73
2024/02/13 02:56:45;;;;;;;5.18;3.47;;;7.70;99.90;;;7.03;100.00;101225.28;4185033;28;20025;-73
2024/02/13 02:58:46;;;;;;;7.30;3.70;;;7.70;99.90;;;7.02;100.00;101226.22;4185118;28;20040;-73
2024/02/13 03:00:48;;;;;;;7.32;3.72;;;7.70;99.90;;;7.03;100.00;101225.28;4184055;28;20513;-73
2024/02/13 03:02:49;;;;;;;10.95;4.47;;;7.70;99.90;;;7.07;100.00;101219.69;4167797;28;20025;-73
2024/02/13 03:04:50;;;;;;;4.70;3.22;;;7.70;99.90;;;7.10;100.00;101222.06;4183908;28;20493;-73
2024/02/13 03:06:51;;;;;;;11.07;3.53;;;7.70;99.90;;;7.12;100.00;101222.78;4185266;28;20112;-73
2024/02/13 03:08:52;;;;;;;7.75;3.00;;;7.80;99.90;;;7.13;100.00;101215.75;4183918;28;20109;-73
2024/02/13 03:10:53;;;;;;;7.05;3.08;;;7.80;99.90;;;7.19;100.00;101223.13;4184944;28;20504;-73
2024/02/13 03:12:55;;;;;;;7.18;3.30;;;7.80;99.90;;;7.22;100.00;101221.09;4185245;28;20025;-73
2024/02/13 03:14:56;;;;;;;12.98;3.83;;;7.90;99.90;;;7.25;100.00;101220.00;4185102;28;20021;-73
2024/02/13 03:16:57;;;;;;;7.80;3.33;;;7.90;99.90;;;7.27;100.00;101212.84;4185107;28;20040;-73
2024/02/13 03:18:58;;;;;;;8.73;3.58;;;7.90;99.90;;;7.33;100.00;101206.25;4184980;28;20037;-73
2024/02/13 03:20:59;;;;;;;5.82;3.35;;;7.90;99.90;;;7.30;100.00;101196.84;4183872;28;20021;-73
2024/02/13 03:23:00;;;;;;;6.90;3.10;;;8.00;99.90;;;7.35;100.00;101202.53;4183720;28;20037;-73
2024/02/13 03:25:01;;;;;;;5.45;2.47;;;8.00;99.90;;;7.41;100.00;101196.81;4185004;28;20040;-73
2024/02/13 03:27:02;;;;;;;10.55;2.78;;;8.00;99.90;;;7.44;100.00;101193.09;4183630;28;20029;-73
2024/02/13 03:29:03;;;;;;;4.25;2.50;;;8.10;99.90;;;7.48;100.00;101200.59;4183928;28;20021;-73
2024/02/13 03:31:04;;;;;;;7.93;2.83;;;8.20;99.90;;;7.49;100.00;101189.16;4183737;28;20037;-73
2024/02/13 03:33:05;;;;;;;5.97;3.42;;;8.20;99.90;;;7.53;100.00;101193.19;4183875;28;20021;-73
2024/02/13 03:35:06;;;;;;;8.43;3.13;;;8.20;99.90;;;7.58;100.00;101188.41;4187087;28;20036;-73
2024/02/13 03:37:08;;;;;;;6.68;2.80;;;8.20;99.90;;;7.61;100.00;101188.16;4187104;28;20159;-73
2024/02/13 03:39:09;;;;;;;5.13;2.53;;;8.20;99.90;;;7.64;100.00;101190.53;4170272;28;20105;-73
2024/02/13 03:41:10;;;;;;;5.90;2.45;;;8.30;99.90;;;7.66;100.00;101180.72;4188155;28;20029;-72
2024/02/13 03:43:11;;;;;;;7.05;3.00;;;8.30;99.90;;;7.65;100.00;101176.41;4187113;28;20020;-72
2024/02/13 03:45:12;;;;;;;4.78;2.65;;;8.30;99.90;;;7.71;100.00;101186.41;4186974;28;20021;-72
2024/02/13 03:47:13;;;;;;;5.15;2.25;;;8.30;99.90;;;7.71;100.00;101175.91;4188097;28;20021;-73
2024/02/13 03:49:15;;;;;;;6.18;3.35;;;8.40;99.90;;;7.73;100.00;101181.91;4186665;28;20705;-72
2024/02/13 03:51:16;;;;;;;5.82;2.65;;;8.40;99.90;;;7.77;100.00;101174.56;4188172;28;20029;-72
2024/02/13 03:53:17;;;;;;;8.48;2.17;;;8.40;99.90;;;7.77;100.00;101171.94;4188056;28;20051;-72
2024/02/13 03:55:19;;;;;;;3.05;1.80;;;8.40;99.90;;;7.77;100.00;101175.41;4187893;28;20039;-72
2024/02/13 03:57:20;;;;;;;4.35;2.50;;;8.40;99.90;;;7.77;100.00;101174.56;4186837;28;20025;-72
2024/02/13 03:59:23;;;;;;;7.72;2.35;;;8.40;99.90;;;7.76;100.00;101178.19;4186671;28;20039;-72
2024/02/13 04:01:24;;;;;;;3.65;1.77;;;8.40;99.90;;;7.70;100.00;101170.81;4188040;28;20029;-72
2024/02/13 04:03:26;;;;;;;4.40;1.60;;;8.40;99.90;;;7.65;100.00;101165.09;4188043;28;20029;-72
2024/02/13 04:05:27;;;;;;;4.30;1.50;;;8.30;99.90;;;7.60;100.00;101164.63;4187929;28;20043;-72
2024/02/13 04:07:28;;;;;;;2.85;1.30;;;8.30;99.90;;;7.51;100.00;101168.84;4188036;28;20021;-72
2024/02/13 04:09:29;;;;;;;3.88;1.38;;;8.20;99.90;;;7.43;100.00;101168.66;4186493;28;20482;-73
2024/02/13 04:11:30;;;;;;;4.20;1.30;;;8.10;99.90;;;7.36;100.00;101172.72;4186367;28;20448;-72
2024/02/13 04:13:31;;;;;;;6.68;1.95;;;8.10;99.90;;;7.39;100.00;101169.03;4186770;28;20037;-72
2024/02/13 04:15:35;;;;;;;5.50;1.70;;;8.10;99.90;;;7.45;100.00;101174.59;4187484;28;20033;-73
2024/02/13 04:17:36;;;;;;;3.15;1.50;;;8.10;99.90;;;7.51;100.00;101173.28;4176943;28;20072;-73
2024/02/13 04:19:38;;;;;;;3.42;1.45;;;8.20;99.90;;;7.52;100.00;101173.16;4187635;28;20025;-72
2024/02/13 04:21:39;;;;;;;5.60;2.17;;;8.20;99.90;;;7.57;100.00;101178.00;4186319;28;20021;-72
2024/02/13 04:23:40;;;;;;;4.05;1.25;;;8.20;99.90;;;7.58;100.00;101170.03;4187652;28;20503;-72
2024/02/13 04:25:41;;;;;;;6.28;1.45;;;8.20;99.90;;;7.59;100.00;101170.84;4185864;28;20087;-72
2024/02/13 04:27:44;;;;;;;2.35;1.25;;;8.20;99.90;;;7.62;100.00;101174.03;4187021;28;20079;-72
2024/02/13 04:29:44;;;;;;;3.17;1.35;;;8.30;99.90;;;7.65;100.00;101178.22;4186350;28;20043;-72
2024/02/13 04:31:45;;;;;;;3.65;1.42;;;8.30;99.90;;;7.63;100.00;101170.47;4186506;28;20033;-72
2024/02/13 04:33:46;;;;;;;4.50;1.63;;;8.30;99.90;;;7.66;100.00;101172.84;4187595;28;20029;-72
2024/02/13 04:35:47;;;;;;;8.38;2.28;;;8.30;99.90;;;7.70;100.00;101174.28;4186123;28;20025;-72
2024/02/13 04:37:49;;;;;;;4.30;1.20;;;8.30;99.90;;;7.69;100.00;101169.13;4186086;28;20092;-72
2024/02/13 04:39:50;;;;;;;3.63;1.13;;;8.40;99.90;;;7.73;100.00;101174.00;4186154;28;20021;-72
2024/02/13 04:41:50;;;;;;;5.63;1.85;;;8.40;99.90;;;7.73;100.00;101163.50;4187163;28;20075;-72
2024/02/13 04:43:54;;;;;;;5.78;2.15;;;8.40;99.90;;;7.73;100.00;101168.75;4187200;28;20021;-72
2024/02/13 04:45:55;;;;;;;3.77;1.80;;;8.40;99.90;;;7.72;100.00;101161.00;4185828;28;20033;-72
2024/02/13 04:47:56;;;;;;;1.95;1.38;;;8.40;99.90;;;7.71;100.00;101161.94;4186989;28;20025;-73
2024/02/13 04:50:06;;;;;;;4.68;1.30;;;8.40;99.90;;;7.73;100.00;101165.28;4185998;28;20037;-72
2024/02/13 04:52:11;;;;;;;3.97;1.50;;;8.40;99.90;;;7.71;100.00;101160.16;4185785;28;20563;-72
2024/02/13 04:54:11;;;;;;;;;;;8.40;99.90;;;7.73;100.00;101165.28;4186536;28;20079;-73
2024/02/13 04:56:14;;;;;;;4.80;1.40;;;8.40;99.90;;;7.80;100.00;101172.53;4186989;28;19908;-72
2024/02/13 04:58:18;;;;;;;3.30;1.27;;;8.40;99.90;;;7.75;100.00;101166.84;4186116;28;20017;-72
2024/02/13 05:00:24;;;;;;;6.57;1.63;;;8.40;99.90;;;7.79;100.00;101168.22;4169406;28;20410;-72
2024/02/13 05:02:25;;;;;;;2.90;1.10;;;8.40;99.90;;;7.81;100.00;101168.13;4185550;28;20037;-73
2024/02/13 05:08:53;;;;;;;5.90;2.03;;;8.40;99.90;;;7.74;100.00;101162.53;4186829;28;20039;-73
2024/02/13 05:10:56;;;;;;;3.63;1.20;;;8.40;99.90;;;7.72;100.00;101161.84;4169355;28;20460;-72
2024/02/13 05:12:57;;;;;;;6.70;1.50;;;8.40;99.90;;;7.68;100.00;101170.91;4185802;28;20452;-72
2024/02/13 05:14:59;;;;;;;4.00;1.08;;;8.30;99.90;;;7.62;100.00;101166.16;4185769;28;20056;-72
2024/02/13 05:17:01;;;;;;;4.07;1.42;;;8.30;99.90;;;7.57;100.00;101165.72;4185620;28;20017;-73
2024/02/13 05:19:03;;;;;;;3.67;1.10;;;8.20;99.90;;;7.55;100.00;101170.28;4185469;28;20025;-72
2024/02/13 05:21:04;;;;;;;6.18;0.90;;;8.20;99.90;;;7.54;100.00;101173.00;4186724;28;20044;-72
2024/02/13 05:23:08;;;;;;;5.18;1.10;;;8.20;99.90;;;7.57;100.00;101176.22;4186748;28;20029;-73
2024/02/13 05:25:09;;;;;;;2.80;1.00;;;8.20;99.90;;;7.59;100.00;101178.72;4169372;28;20032;-72
2024/02/13 05:27:10;;;;;;;5.20;1.00;;;8.20;99.90;;;7.62;100.00;101183.72;4186574;28;20029;-72
2024/02/13 05:29:11;;;;;;;5.05;1.27;;;8.20;99.90;;;7.68;100.00;101178.78;4185483;28;20027;-72
2024/02/13 05:31:12;;;;;;;4.63;1.30;;;8.30;99.90;;;7.65;100.00;101165.09;4185355;28;20502;-72
2024/02/13 05:33:13;;;;;;;4.97;1.25;;;8.30;99.90;;;7.79;100.00;101176.09;4186632;28;20028;-72
2024/02/13 05:35:14;;;;;;;4.90;0.98;;;8.40;99.90;;;7.85;100.00;101177.41;4185454;28;20041;-72
2024/02/13 05:37:19;;;;;;;2.65;0.70;;;8.40;99.90;;;7.82;100.00;101181.09;4186440;28;20044;-72
2024/02/13 05:39:20;;;;;;;5.55;1.10;;;8.40;99.90;;;7.82;100.00;101163.69;4186207;28;20033;-72
2024/02/13 05:41:20;;;;;;;1.80;0.77;;;8.50;99.90;;;7.71;100.00;101157.53;4186277;28;20076;-72
2024/02/13 05:43:21;;;;;;;5.38;1.60;;;8.40;99.90;;;7.69;100.00;101156.00;4185151;28;20024;-72
2024/02/13 05:45:22;;;;;;;6.82;1.40;;;8.30;99.90;;;7.62;100.00;101154.84;4185035;28;20017;-72
2024/02/13 05:47:29;;;;;;;6.28;1.25;;;8.30;99.90;;;7.52;100.00;101156.56;4186568;28;20033;-72
2024/02/13 05:49:30;;;;;;;4.82;0.90;;;8.20;99.90;;;7.42;100.00;101163.53;4169045;28;20052;-72
2024/02/13 05:51:31;;;;;;;2.70;0.85;;;8.10;99.90;;;7.36;100.00;101167.47;4175018;28;20037;-72
2024/02/13 05:53:33;;;;;;;6.13;1.10;;;8.10;99.90;;;7.33;100.00;101170.34;4169712;28;20033;-72
2024/02/13 05:55:33;;;;;;;4.03;0.85;;;8.00;99.90;;;7.30;100.00;101159.28;4168379;28;20033;-72
2024/02/13 05:57:34;;;;;;;5.03;0.88;;;8.00;99.90;;;7.29;100.00;101171.56;4169219;28;20037;-72
2024/02/13 05:59:35;;;;;;;5.20;1.65;;;7.90;99.90;;;7.29;100.00;101168.94;4184974;28;20032;-72
2024/02/13 06:01:36;;;;;;;5.43;0.88;;;7.90;99.90;;;7.29;100.00;101168.13;4185018;28;20029;-72
2024/02/13 06:03:37;;;;;;;9.15;1.52;;;7.90;99.90;;;7.22;100.00;101171.25;4186288;28;20025;-72
2024/02/13 06:05:38;;;;;;;6.25;1.52;;;7.90;99.90;;;7.21;100.00;101176.59;4168275;28;20029;-72
2024/02/13 06:07:40;;;;;;;2.42;0.80;;;7.90;99.90;;;7.20;100.00;101172.28;4186052;28;20025;-72
2024/02/13 06:09:40;;;;;;;5.65;0.88;;;7.80;99.90;;;7.16;100.00;101170.91;4185878;28;20025;-72
2024/02/13 06:11:42;;;;;;;6.85;1.45;;;7.80;99.90;;;7.15;100.00;101169.22;4184578;28;20029;-72
2024/02/13 06:13:45;;;;;;;2.13;0.60;;;7.80;99.90;;;7.11;100.00;101171.25;4186082;28;20029;-72
2024/02/13 06:15:46;;;;;;;5.90;0.88;;;7.80;99.90;;;7.11;100.00;101166.00;4184840;28;20021;-72
2024/02/13 06:17:47;;;;;;;4.35;0.60;;;7.80;99.90;;;7.12;100.00;101166.84;4184462;28;20066;-72
2024/02/13 06:19:48;;;;;;;1.70;0.70;;;7.80;99.90;;;7.10;100.00;101169.59;4184450;28;20041;-72
2024/02/13 06:21:49;;;;;;;5.15;1.40;;;7.80;99.90;;;7.20;100.00;101175.75;4185299;28;20013;-72
2024/02/13 06:23:50;;;;;;;9.38;1.92;;;7.80;99.90;;;7.26;100.00;101184.13;4185813;28;20021;-72
2024/02/13 06:25:51;;;;;;;3.88;1.17;;;7.90;99.90;;;7.31;100.00;101182.78;4182606;28;20528;-72
2024/02/13 06:27:52;;;;;;;4.40;1.08;;;7.90;99.90;;;7.37;100.00;101184.06;4185671;28;20021;-72
2024/02/13 06:29:53;;;;;;;2.97;1.02;;;8.00;99.90;;;7.41;100.00;101194.19;4185748;28;20505;-72
2024/02/13 06:31:55;;;;;;;3.20;1.27;;;8.00;99.90;;;7.42;100.00;101195.00;4184497;28;20029;-73
2024/02/13 06:33:55;;;;;;;6.50;1.75;;;8.00;99.90;;;7.44;100.00;101187.84;4185675;28;20074;-73
2024/02/13 06:35:56;;;;;;;2.00;0.57;;;8.00;99.90;;;7.46;100.00;101193.81;4181631;28;20419;-72
2024/02/13 06:37:59;;;;;;;1.55;0.50;;;8.10;99.90;;;7.44;100.00;101187.84;4184389;28;20029;-72
2024/02/13 06:40:00;;;;;;;6.72;0.70;;;8.10;99.90;;;7.39;100.00;101175.09;4183766;28;20033;-73
2024/02/13 06:42:01;;;;;;;9.07;0.90;;;8.10;99.90;;;7.48;100.00;101179.59;4185029;28;20028;-73
2024/02/13 06:44:05;;;;;;;4.65;1.17;;;8.10;99.90;;;7.47;100.00;101174.47;4183483;28;20052;-73
2024/02/13 06:46:08;;;;;;;3.65;1.00;;;8.10;99.90;;;7.49;100.00;101185.69;4183910;28;20100;-74
2024/02/13 06:48:09;;;;;;;3.72;0.85;;;8.10;99.90;;;7.55;100.00;101185.19;4183422;28;20100;-73
2024/02/13 06:50:12;;;;;;;3.97;1.00;;;8.20;99.90;;;7.57;100.00;101186.72;4185435;28;20028;-73
2024/02/13 06:52:13;;;;;;;3.67;0.77;;;8.20;99.90;;;7.56;100.00;101192.94;4184252;28;20029;-73
2024/02/13 06:54:14;;;;;;;5.80;1.13;;;8.20;99.90;;;7.54;100.00;101183.50;4184268;28;20021;-73
2024/02/13 06:56:16;;;;;;;4.78;1.08;;;8.20;99.90;;;7.58;100.00;101191.03;4167317;28;20429;-73
2024/02/13 06:58:18;;;;;;;2.60;0.80;;;8.20;99.90;;;7.61;100.00;101198.66;4185352;28;20392;-73
2024/02/13 07:00:19;;;;;;;4.40;0.90;;;8.20;99.90;;;7.63;100.00;101199.34;4183672;28;20078;-73
2024/02/13 07:02:20;;;;;;;3.33;0.90;;;8.30;99.90;;;7.64;100.00;101182.66;4184129;28;20044;-73
2024/02/13 07:04:21;;;;;;;7.85;1.13;;;8.30;99.90;;;7.62;100.00;101176.66;4184066;28;20021;-73
2024/02/13 07:06:22;;;;;;;6.65;1.98;;;8.30;99.90;;;7.65;100.00;101192.16;4184060;28;20029;-73
2024/02/13 07:08:23;;;;;;;3.05;1.10;;;8.30;99.90;;;7.62;100.00;101175.84;4184107;28;20021;-73
2024/02/13 07:10:24;;;;;;;2.78;0.90;;;8.30;99.90;;;7.69;100.00;101184.88;4183840;28;20035;-73
2024/02/13 07:12:25;;;;;;;6.88;1.20;;;8.30;99.90;;;7.68;100.00;101172.69;4185188;28;20037;-73
2024/02/13 07:14:28;;;;;;;3.70;1.00;;;8.30;99.90;;;7.73;100.00;101188.94;4183905;28;20024;-73
2024/02/13 07:16:29;;;;;;;1.98;0.70;;;8.40;99.90;;;7.78;100.00;101192.00;4184048;28;20481;-73
2024/02/13 07:18:30;;;;;;;4.70;0.93;;;8.40;99.90;;;7.77;100.00;101187.69;4181534;28;20033;-73
2024/02/13 07:20:32;;;;;;;4.82;1.02;;;8.40;99.90;;;7.73;100.00;101188.94;4175816;28;20082;-73
2024/02/13 07:22:33;;;;;;;7.32;1.60;;;8.40;99.90;;;7.71;100.00;101191.66;4181749;28;20150;-73
2024/02/13 07:24:36;;;;;;;6.10;1.38;;;8.40;99.90;;;7.66;100.00;101199.09;4182426;28;20028;-73
2024/02/13 07:26:37;;;;;;;3.25;0.90;;;8.40;99.90;;;7.63;100.00;101188.00;4183382;28;20083;-73
2024/02/13 07:28:39;;;;;;;3.42;0.95;;;8.40;99.90;;;7.64;100.00;101190.53;4183907;28;20029;-73
2024/02/13 07:30:40;;;;;;;8.15;1.52;;;8.30;99.90;;;7.69;100.00;101198.00;4182875;28;20032;-73
2024/02/13 07:32:41;;;;;;;4.55;1.77;;;8.40;99.90;;;7.70;100.00;101184.78;4179935;28;20484;-73
2024/02/13 07:34:42;;;;;;;2.88;1.00;;;8.40;99.90;;;7.76;100.00;101194.75;4183853;28;20021;-73
2024/02/13 07:36:43;;;;;;;4.30;0.88;;;8.40;99.90;;;7.80;100.00;101197.94;4184914;28;20061;-73
2024/02/13 07:38:44;;;;;;;4.15;0.90;;;8.40;99.90;;;7.84;100.00;101202.00;4184862;28;20025;-74
2024/02/13 07:40:45;;;;;;;8.70;1.73;;;8.50;99.90;;;7.89;100.00;101204.22;4183309;28;20048;-74
2024/02/13 07:42:46;;;;;;;6.60;1.10;;;8.50;99.90;;;7.90;100.00;101209.38;4184991;28;20064;-72
2024/02/13 07:44:47;;;;;;;6.13;0.70;;;8.50;99.90;;;7.93;100.00;101200.41;4184995;28;20044;-74
2024/02/13 07:46:48;;;;;;;3.45;1.17;;;8.60;99.90;;;7.96;100.00;101200.97;4185071;28;20033;-73
2024/02/13 07:48:49;;;;;;;4.68;0.95;;;8.60;99.90;;;7.93;100.00;101200.41;4166858;28;20042;-74
2024/02/13 07:50:50;;;;;;;3.30;1.83;;;8.60;99.90;;;8.00;100.00;101212.91;4183915;28;20029;-72
2024/02/13 07:52:50;;;;;;;6.28;1.58;;;8.60;99.90;;;8.01;100.00;101211.94;4184921;28;20032;-73
2024/02/13 07:54:51;;;;;;;4.25;1.35;;;8.60;99.90;;;8.01;100.00;101197.94;4184863;28;20025;-72
2024/02/13 07:56:53;;;;;;;3.90;1.05;;;8.70;99.90;;;8.06;100.00;101209.78;4183183;28;20542;-73
2024/02/13 07:58:59;;;;;;;3.85;1.15;;;8.70;99.90;;;8.11;100.00;101212.00;4184585;28;20040;-73
2024/02/13 08:01:00;;;;;;;3.67;0.90;;;8.70;99.90;;;8.10;100.00;101218.19;4183929;28;20568;-73
2024/02/13 08:03:01;;;;;;;2.67;0.90;;;8.70;99.90;;;8.11;100.00;101219.88;4184936;28;20040;-73
2024/02/13 08:05:02;;;;;;;4.70;1.33;;;8.70;99.90;;;8.11;100.00;101217.25;4183414;28;20025;-73
2024/02/13 08:07:03;;;;;;;5.13;1.15;;;8.80;99.90;;;8.18;100.00;101228.94;4183667;28;20032;-73
2024/02/13 08:09:08;;;;;;;4.43;0.98;;;8.80;99.90;;;8.20;100.00;101229.63;4184793;28;20063;-73
2024/02/13 08:11:10;;;;;;;7.47;1.45;;;8.80;99.90;;;8.18;100.00;101237.63;4183528;28;20064;-73
2024/02/13 08:13:10;;;;;;;3.17;1.30;;;8.80;99.90;;;8.09;100.00;101222.66;4183310;28;20033;-73
2024/02/13 08:15:11;;;;;;;8.18;1.30;;;8.80;99.90;;;8.14;100.00;101230.97;4184730;28;20025;-73
2024/02/13 08:17:12;;;;;;;3.92;1.05;;;8.80;99.90;;;8.19;100.00;101238.47;4175444;28;20108;-73
2024/02/13 08:19:13;;;;;;;5.28;1.50;;;8.80;99.90;;;8.23;100.00;101243.34;4178379;28;20079;-73
2024/02/13 08:21:14;;;;;;;5.05;0.82;;;8.80;99.90;;;8.24;100.00;101246.81;4186262;28;20025;-73
2024/02/13 08:23:15;;;;;;;3.97;1.00;;;8.80;99.90;;;8.25;100.00;101245.81;4198997;28;20079;-73
2024/02/13 08:25:15;;;;;;;4.18;1.23;;;8.80;99.90;;;8.19;100.00;101226.16;4187580;28;20029;-73
2024/02/13 08:27:18;;;;;;;5.63;1.27;;;8.90;99.90;;;8.29;100.00;101244.66;4187024;28;20013;-73
2024/02/13 08:29:19;;;;;;;5.75;1.83;;;8.90;99.90;;;8.32;100.00;101252.28;4186083;28;20033;-73
2024/02/13 08:31:20;;;;;;;6.45;1.95;;;8.90;99.90;;;8.37;100.00;101250.09;4187591;28;20056;-73
2024/02/13 08:33:22;;;;;;;4.45;1.83;;;9.00;99.90;;;8.41;100.00;101254.13;4169669;28;20528;-73